Time;durP1;ratioP1;P1;durP2;ratioP2;P2;SDS_P1;SDS_P2;PMS_P1;PMS_P2;Temp;Humidity;BMP_temperature;BMP_pressure;BME280_temperature;BME280_humidity;BME280_pressure;Samples;Min_cycle;Max_cycle;Signal;HPM_P1;HPM_P2
2024/01/02 00:01:34;;;;;;;0.10;0.10;;;6.30;90.30;;;;;;5051465;28;20071;-71
2024/01/02 00:04:00;;;;;;;0.00;0.00;;;6.30;90.60;;;;;;5069547;28;20040;-71
2024/01/02 00:06:26;;;;;;;0.00;0.00;;;6.30;90.60;;;;;;5069712;28;20037;-71
2024/01/02 00:08:51;;;;;;;0.00;0.00;;;6.30;90.70;;;;;;5069635;28;20044;-71
2024/01/02 00:11:17;;;;;;;0.20;0.20;;;6.30;90.60;;;;;;5069319;28;20040;-71
2024/01/02 00:13:42;;;;;;;0.10;0.10;;;6.30;90.70;;;;;;5071197;28;20040;-71
2024/01/02 00:16:08;;;;;;;0.00;0.00;;;6.30;90.90;;;;;;5071271;28;20127;-71
2024/01/02 00:18:34;;;;;;;0.00;0.00;;;6.30;90.80;;;;;;5070194;28;20050;-71
2024/01/02 00:21:00;;;;;;;0.00;0.00;;;6.20;90.70;;;;;;5069327;28;21065;-71
2024/01/02 00:23:25;;;;;;;0.00;0.00;;;6.30;90.90;;;;;;5053468;28;20052;-70
2024/01/02 00:25:51;;;;;;;0.00;0.00;;;6.30;90.90;;;;;;5052449;28;20056;-71
2024/01/02 00:28:18;;;;;;;0.80;0.80;;;6.20;91.00;;;;;;5067842;28;20102;-71
2024/01/02 00:30:43;;;;;;;0.00;0.00;;;6.30;91.20;;;;;;5069121;28;20529;-71
2024/01/02 00:33:09;;;;;;;0.00;0.00;;;6.30;91.20;;;;;;5068569;28;20040;-71
2024/01/02 00:35:35;;;;;;;0.73;0.73;;;6.30;91.30;;;;;;5069832;28;20505;-71
2024/01/02 00:38:01;;;;;;;0.80;0.08;;;6.30;91.30;;;;;;5067899;28;20483;-71
2024/01/02 00:40:27;;;;;;;0.00;0.00;;;6.30;91.40;;;;;;5068589;28;20086;-71
2024/01/02 00:42:52;;;;;;;0.10;0.10;;;6.30;91.50;;;;;;5069074;28;20090;-71
2024/01/02 00:45:18;;;;;;;0.00;0.00;;;6.30;91.60;;;;;;5068452;28;20433;-71
2024/01/02 00:47:44;;;;;;;0.03;0.03;;;6.30;91.70;;;;;;5068835;28;20064;-71
2024/01/02 00:50:10;;;;;;;0.00;0.00;;;6.30;91.60;;;;;;5069786;28;20082;-71
2024/01/02 00:52:35;;;;;;;0.10;0.10;;;6.40;91.70;;;;;;5052049;28;20131;-69
2024/01/02 00:55:03;;;;;;;2.38;1.98;;;6.40;91.70;;;;;;5068496;28;20728;-68
2024/01/02 00:57:30;;;;;;;0.30;0.30;;;6.40;91.80;;;;;;5072269;28;20044;-69
2024/01/02 00:59:55;;;;;;;0.00;0.00;;;6.40;91.80;;;;;;5069035;28;20126;-68
2024/01/02 01:02:21;;;;;;;0.00;0.00;;;6.40;92.00;;;;;;5071497;28;20052;-68
2024/01/02 01:04:47;;;;;;;0.00;0.00;;;6.40;92.20;;;;;;5068157;28;20529;-69
2024/01/02 01:07:12;;;;;;;0.00;0.00;;;6.30;92.20;;;;;;5052785;28;20040;-69
2024/01/02 01:09:38;;;;;;;0.10;0.10;;;6.50;92.30;;;;;;5068156;28;20037;-71
2024/01/02 01:12:05;;;;;;;0.08;0.08;;;6.40;92.20;;;;;;5067489;28;20196;-71
2024/01/02 01:14:30;;;;;;;0.10;0.10;;;6.40;92.20;;;;;;5054022;28;20062;-71
2024/01/02 01:16:56;;;;;;;0.20;0.20;;;6.50;92.30;;;;;;5063125;28;20044;-71
2024/01/02 01:19:21;;;;;;;0.00;0.00;;;6.50;92.20;;;;;;5067297;28;20088;-71
2024/01/02 01:21:47;;;;;;;0.10;0.10;;;6.50;92.20;;;;;;5066820;28;20040;-71
2024/01/02 01:24:13;;;;;;;0.10;0.10;;;6.50;92.20;;;;;;5067444;28;20405;-71
2024/01/02 01:26:38;;;;;;;0.55;0.55;;;6.50;92.40;;;;;;5062977;28;21068;-71
2024/01/02 01:29:04;;;;;;;0.00;0.00;;;6.50;92.60;;;;;;5067013;28;20870;-71
2024/01/02 01:31:30;;;;;;;0.08;0.08;;;6.50;92.70;;;;;;5065957;28;20040;-71
2024/01/02 01:33:56;;;;;;;0.00;0.00;;;6.50;92.70;;;;;;5066899;28;20079;-71
2024/01/02 01:36:22;;;;;;;0.00;0.00;;;6.50;92.70;;;;;;5068385;28;20083;-71
2024/01/02 01:38:48;;;;;;;0.52;0.52;;;6.50;92.90;;;;;;5067606;28;20041;-71
2024/01/02 01:41:13;;;;;;;0.00;0.00;;;6.60;93.00;;;;;;5049090;28;20127;-71
2024/01/02 01:43:39;;;;;;;0.00;0.00;;;6.50;93.20;;;;;;5067957;28;20048;-71
2024/01/02 01:46:06;;;;;;;0.03;0.03;;;6.60;93.20;;;;;;5067702;28;20083;-72
2024/01/02 01:48:33;;;;;;;0.00;0.00;;;6.60;93.20;;;;;;5049615;28;20045;-72
2024/01/02 01:50:59;;;;;;;0.10;0.10;;;6.60;93.10;;;;;;5067929;28;20106;-72
2024/01/02 01:53:25;;;;;;;0.00;0.00;;;6.60;93.20;;;;;;5045517;28;20771;-72
2024/01/02 01:55:51;;;;;;;0.00;0.00;;;6.70;93.10;;;;;;5047384;28;20045;-72
2024/01/02 01:58:17;;;;;;;0.00;0.00;;;6.60;93.10;;;;;;5060274;28;20052;-71
2024/01/02 02:00:43;;;;;;;0.00;0.00;;;6.60;93.20;;;;;;5067632;28;20090;-71
2024/01/02 02:03:10;;;;;;;0.10;0.10;;;6.60;93.20;;;;;;5065171;28;20415;-72
2024/01/02 02:05:36;;;;;;;0.05;0.05;;;6.70;93.20;;;;;;5066992;28;20396;-71
2024/01/02 02:08:02;;;;;;;0.00;0.00;;;6.70;93.10;;;;;;5067213;28;20102;-71
2024/01/02 02:10:29;;;;;;;0.00;0.00;;;6.70;93.20;;;;;;5067377;28;20052;-72
2024/01/02 02:12:55;;;;;;;0.00;0.00;;;6.60;93.20;;;;;;5067148;28;20034;-71
2024/01/02 02:15:21;;;;;;;0.10;0.10;;;6.60;93.30;;;;;;5067098;28;20044;-71
2024/01/02 02:17:47;;;;;;;0.22;0.22;;;6.60;93.20;;;;;;5066915;28;20090;-71
2024/01/02 02:20:12;;;;;;;0.00;0.00;;;6.70;93.30;;;;;;5045660;28;20072;-71
2024/01/02 02:22:39;;;;;;;0.08;0.08;;;6.70;93.20;;;;;;5059777;28;20119;-71
2024/01/02 02:25:06;;;;;;;0.03;0.03;;;6.70;93.20;;;;;;5067122;28;20051;-71
2024/01/02 02:27:33;;;;;;;0.10;0.10;;;6.80;93.30;;;;;;5061964;28;20388;-71
2024/01/02 02:29:59;;;;;;;0.00;0.00;;;6.70;93.40;;;;;;5064304;28;20123;-71
2024/01/02 02:32:25;;;;;;;0.10;0.10;;;6.70;93.40;;;;;;5066795;28;20037;-71
2024/01/02 02:34:51;;;;;;;0.00;0.00;;;6.80;93.50;;;;;;5061469;28;20090;-71
2024/01/02 02:37:17;;;;;;;0.30;0.30;;;6.80;93.30;;;;;;5066655;28;20051;-71
2024/01/02 02:39:42;;;;;;;0.00;0.00;;;6.80;93.30;;;;;;5066674;28;20045;-71
2024/01/02 02:42:08;;;;;;;0.00;0.00;;;6.80;93.40;;;;;;5067361;28;20504;-71
2024/01/02 02:44:33;;;;;;;0.10;0.10;;;6.80;93.50;;;;;;5048852;28;20494;-71
2024/01/02 02:46:59;;;;;;;0.00;0.00;;;6.90;93.50;;;;;;5066933;28;20059;-71
2024/01/02 02:49:25;;;;;;;3.00;1.65;;;6.80;93.50;;;;;;5067044;28;20045;-71
2024/01/02 02:51:51;;;;;;;0.00;0.00;;;6.80;93.50;;;;;;5067158;28;20048;-71
2024/01/02 02:54:17;;;;;;;2.55;2.00;;;6.90;93.60;;;;;;5047860;28;20387;-71
2024/01/02 02:56:43;;;;;;;0.00;0.00;;;6.90;93.50;;;;;;5066333;28;20056;-71
2024/01/02 02:59:12;;;;;;;0.00;0.00;;;6.90;93.30;;;;;;5048947;28;20045;-69
2024/01/02 03:01:38;;;;;;;0.20;0.20;;;6.80;93.50;;;;;;5046878;28;20052;-69
2024/01/02 03:04:04;;;;;;;0.00;0.00;;;6.80;93.70;;;;;;5046637;28;20041;-72
2024/01/02 03:06:30;;;;;;;0.00;0.00;;;6.70;93.70;;;;;;5064577;28;20033;-71
2024/01/02 03:08:56;;;;;;;0.00;0.00;;;6.80;93.60;;;;;;5066501;28;20086;-71
2024/01/02 03:11:21;;;;;;;0.47;0.47;;;6.90;93.70;;;;;;5066387;28;20047;-71
2024/01/02 03:13:47;;;;;;;0.00;0.00;;;6.80;93.50;;;;;;5066471;28;20098;-71
2024/01/02 03:16:14;;;;;;;0.00;0.00;;;6.80;93.60;;;;;;5066873;28;20106;-71
2024/01/02 03:18:40;;;;;;;0.10;0.10;;;6.90;93.70;;;;;;5066730;28;20082;-71
2024/01/02 03:21:09;;;;;;;0.10;0.10;;;6.90;93.50;;;;;;5066090;28;20450;-71
2024/01/02 03:23:35;;;;;;;0.00;0.00;;;6.90;93.30;;;;;;5066238;28;20045;-71
2024/01/02 03:26:00;;;;;;;0.00;0.00;;;6.90;93.30;;;;;;5066030;28;20037;-71
2024/01/02 03:28:26;;;;;;;0.00;0.00;;;6.80;93.50;;;;;;5065406;28;20182;-71
2024/01/02 03:30:52;;;;;;;0.00;0.00;;;6.90;93.50;;;;;;5065501;28;20102;-70
2024/01/02 03:33:18;;;;;;;0.00;0.00;;;6.90;93.50;;;;;;5049485;28;20048;-71
2024/01/02 03:35:44;;;;;;;0.00;0.00;;;6.90;93.40;;;;;;5057142;28;20525;-71
2024/01/02 03:38:10;;;;;;;0.00;0.00;;;6.90;93.50;;;;;;5052039;28;20052;-68
2024/01/02 03:40:36;;;;;;;0.00;0.00;;;6.90;93.40;;;;;;5069779;28;20051;-69
2024/01/02 03:43:03;;;;;;;0.08;0.08;;;6.90;93.40;;;;;;5070092;28;20876;-69
2024/01/02 03:45:28;;;;;;;0.08;0.08;;;6.90;93.40;;;;;;5069645;28;20098;-69
2024/01/02 03:47:54;;;;;;;0.00;0.00;;;6.90;93.30;;;;;;5069870;28;20080;-71
2024/01/02 03:50:20;;;;;;;0.00;0.00;;;6.90;93.30;;;;;;5069873;28;20043;-71
2024/01/02 03:52:45;;;;;;;0.00;0.00;;;7.00;93.30;;;;;;5056286;28;20040;-71
2024/01/02 03:55:11;;;;;;;0.00;0.00;;;6.90;93.10;;;;;;5049427;28;20061;-71
2024/01/02 03:57:37;;;;;;;0.00;0.00;;;7.00;93.20;;;;;;5068441;28;20547;-71
2024/01/02 04:00:04;;;;;;;0.30;0.30;;;6.90;93.10;;;;;;5069491;28;20589;-71
2024/01/02 04:02:30;;;;;;;0.00;0.00;;;6.90;93.20;;;;;;5069315;28;20055;-71
2024/01/02 04:04:55;;;;;;;0.00;0.00;;;6.80;93.30;;;;;;5069763;28;20040;-70
2024/01/02 04:07:22;;;;;;;0.10;0.10;;;6.90;93.40;;;;;;5067152;28;20883;-71
2024/01/02 04:09:48;;;;;;;0.10;0.10;;;6.90;93.30;;;;;;5069164;28;20491;-71
2024/01/02 04:12:13;;;;;;;0.00;0.00;;;7.00;93.50;;;;;;5068779;28;20078;-70
2024/01/02 04:14:39;;;;;;;0.00;0.00;;;7.00;93.40;;;;;;5069135;28;20127;-71
2024/01/02 04:17:04;;;;;;;0.00;0.00;;;7.00;93.40;;;;;;5050499;28;20483;-71
2024/01/02 04:19:31;;;;;;;0.00;0.00;;;6.90;93.40;;;;;;5051871;28;20041;-71
2024/01/02 04:21:56;;;;;;;0.05;0.05;;;6.90;93.50;;;;;;5068231;28;20193;-71
2024/01/02 04:24:23;;;;;;;0.00;0.00;;;7.00;93.60;;;;;;5069292;28;20178;-71
2024/01/02 04:26:49;;;;;;;0.10;0.10;;;6.90;93.60;;;;;;5068329;28;20056;-71
2024/01/02 04:29:14;;;;;;;0.00;0.00;;;6.90;93.60;;;;;;5069828;28;20075;-71
2024/01/02 04:31:40;;;;;;;0.00;0.00;;;6.90;93.70;;;;;;5069178;28;20041;-71
2024/01/02 04:34:06;;;;;;;0.00;0.00;;;7.00;93.60;;;;;;5069176;28;20040;-71
2024/01/02 04:36:31;;;;;;;0.00;0.00;;;6.90;93.60;;;;;;5068529;28;20044;-71
2024/01/02 04:38:57;;;;;;;0.00;0.00;;;6.90;93.60;;;;;;5068803;28;20029;-71
2024/01/02 04:41:23;;;;;;;0.08;0.08;;;6.90;93.70;;;;;;5068853;28;20131;-70
2024/01/02 04:43:48;;;;;;;0.00;0.00;;;7.00;93.60;;;;;;5067544;28;20044;-71
2024/01/02 04:46:14;;;;;;;0.05;0.05;;;6.90;93.70;;;;;;5068983;28;20467;-71
2024/01/02 04:48:40;;;;;;;0.00;0.00;;;6.90;93.70;;;;;;5068478;28;20721;-70
2024/01/02 04:51:05;;;;;;;0.00;0.00;;;6.90;93.90;;;;;;5068596;28;20041;-71
2024/01/02 04:53:31;;;;;;;0.00;0.00;;;6.90;93.80;;;;;;5068696;28;20048;-71
2024/01/02 04:55:57;;;;;;;0.00;0.00;;;6.90;93.80;;;;;;5050778;28;20045;-71
2024/01/02 04:58:22;;;;;;;0.00;0.00;;;7.00;93.90;;;;;;5068218;28;20120;-70
2024/01/02 05:00:48;;;;;;;0.10;0.10;;;6.90;93.80;;;;;;5068416;28;20150;-70
2024/01/02 05:03:13;;;;;;;0.00;0.00;;;6.90;93.80;;;;;;5068191;28;20120;-71
2024/01/02 05:05:39;;;;;;;0.35;0.35;;;7.00;93.60;;;;;;5068451;28;20052;-70
2024/01/02 05:08:05;;;;;;;0.10;0.10;;;7.00;93.70;;;;;;5059944;28;20056;-71
2024/01/02 05:10:30;;;;;;;0.00;0.00;;;7.00;93.60;;;;;;5068800;28;20114;-71
2024/01/02 05:12:56;;;;;;;0.00;0.00;;;7.00;93.70;;;;;;5068084;28;20049;-71
2024/01/02 05:15:22;;;;;;;0.00;0.00;;;7.10;93.60;;;;;;5068091;28;20055;-71
2024/01/02 05:17:47;;;;;;;0.00;0.00;;;7.10;93.60;;;;;;5068525;28;20040;-71
2024/01/02 05:20:13;;;;;;;0.00;0.00;;;7.00;93.60;;;;;;5067636;28;20037;-71
2024/01/02 05:22:39;;;;;;;0.03;0.03;;;7.00;93.70;;;;;;5068602;28;20040;-71
2024/01/02 05:25:06;;;;;;;0.00;0.00;;;7.00;93.60;;;;;;5067952;28;20048;-71
2024/01/02 05:27:32;;;;;;;0.00;0.00;;;7.00;93.70;;;;;;5049797;28;20056;-70
2024/01/02 05:29:58;;;;;;;0.00;0.00;;;7.00;93.70;;;;;;5060571;28;20831;-71
2024/01/02 05:32:23;;;;;;;0.00;0.00;;;7.00;93.80;;;;;;5067901;28;20052;-71
2024/01/02 05:34:49;;;;;;;0.10;0.10;;;7.00;93.80;;;;;;5067329;28;20056;-71
2024/01/02 05:37:16;;;;;;;0.00;0.00;;;7.00;93.80;;;;;;5067720;28;20043;-71
2024/01/02 05:39:42;;;;;;;0.00;0.00;;;7.00;94.00;;;;;;5045792;28;20554;-71
2024/01/02 05:42:08;;;;;;;0.00;0.00;;;6.90;94.10;;;;;;5066953;28;20525;-71
2024/01/02 05:44:33;;;;;;;0.00;0.00;;;6.90;94.20;;;;;;5067681;28;20044;-71
2024/01/02 05:46:59;;;;;;;0.10;0.10;;;6.90;94.30;;;;;;5067368;28;20044;-71
2024/01/02 05:49:25;;;;;;;0.00;0.00;;;6.90;94.40;;;;;;5066773;28;20131;-71
2024/01/02 05:51:50;;;;;;;0.00;0.00;;;6.90;94.40;;;;;;5067490;28;20511;-71
2024/01/02 05:54:16;;;;;;;0.00;0.00;;;7.00;94.40;;;;;;5067415;28;20057;-71
2024/01/02 05:56:41;;;;;;;0.08;0.08;;;7.00;94.30;;;;;;5048659;28;20518;-71
2024/01/02 05:59:07;;;;;;;0.00;0.00;;;7.00;94.30;;;;;;5066911;28;20049;-71
2024/01/02 06:01:33;;;;;;;0.00;0.00;;;7.00;94.30;;;;;;5066854;28;20562;-71
2024/01/02 06:03:58;;;;;;;0.00;0.00;;;7.00;94.40;;;;;;5067501;28;20556;-71
2024/01/02 06:06:24;;;;;;;0.00;0.00;;;7.00;94.50;;;;;;5046742;28;20935;-71
2024/01/02 06:08:49;;;;;;;0.00;0.00;;;7.00;94.60;;;;;;5062001;28;20041;-71
2024/01/02 06:11:15;;;;;;;0.00;0.00;;;7.10;94.70;;;;;;5060291;28;20068;-71
2024/01/02 06:13:41;;;;;;;0.00;0.00;;;7.10;94.60;;;;;;5048213;28;20155;-71
2024/01/02 06:16:12;;;;;;;0.00;0.00;;;7.10;94.70;;;;;;5056144;28;20052;-70
2024/01/02 06:18:38;;;;;;;0.00;0.00;;;7.10;94.60;;;;;;5067053;28;20104;-71
2024/01/02 06:21:04;;;;;;;0.00;0.00;;;7.20;94.70;;;;;;5066013;28;20044;-71
2024/01/02 06:23:33;;;;;;;0.00;0.00;;;7.20;94.70;;;;;;5065824;28;20077;-71
2024/01/02 06:25:59;;;;;;;0.00;0.00;;;7.20;94.60;;;;;;5064312;28;20035;-71
2024/01/02 06:28:25;;;;;;;0.00;0.00;;;7.20;94.60;;;;;;5066270;28;20046;-71
2024/01/02 06:31:05;;;;;;;0.00;0.00;;;7.20;94.70;;;;;;5065653;28;20045;-71
2024/01/02 06:33:32;;;;;;;0.00;0.00;;;7.20;94.70;;;;;;5066089;28;20135;-71
2024/01/02 06:35:57;;;;;;;0.00;0.00;;;7.20;94.70;;;;;;5065610;28;20142;-70
2024/01/02 06:38:23;;;;;;;0.00;0.00;;;7.30;94.80;;;;;;5066564;28;20129;-71
2024/01/02 06:40:49;;;;;;;0.03;0.03;;;7.30;94.70;;;;;;5066757;28;20040;-71
2024/01/02 06:43:14;;;;;;;0.00;0.00;;;7.30;94.80;;;;;;5050507;28;20455;-71
2024/01/02 06:45:40;;;;;;;0.00;0.00;;;7.30;94.80;;;;;;5066571;28;20036;-71
2024/01/02 06:48:06;;;;;;;0.00;0.00;;;7.40;94.80;;;;;;5066579;28;20403;-71
2024/01/02 06:50:32;;;;;;;0.05;0.05;;;7.40;94.80;;;;;;5048733;28;20045;-71
2024/01/02 06:52:57;;;;;;;0.03;0.03;;;7.50;94.80;;;;;;5065725;28;20039;-70
2024/01/02 06:55:23;;;;;;;0.00;0.00;;;7.50;94.80;;;;;;5067220;28;20056;-70
2024/01/02 06:57:49;;;;;;;0.00;0.00;;;7.60;94.90;;;;;;5065855;28;20056;-71
2024/01/02 07:00:15;;;;;;;0.00;0.00;;;7.60;94.90;;;;;;5066164;28;20044;-71
2024/01/02 07:02:41;;;;;;;0.00;0.00;;;7.60;94.90;;;;;;5063862;28;20846;-71
2024/01/02 07:05:07;;;;;;;0.00;0.00;;;7.70;94.90;;;;;;5048829;28;20051;-71
2024/01/02 07:07:32;;;;;;;0.00;0.00;;;7.90;95.00;;;;;;5067584;28;20052;-71
2024/01/02 07:09:58;;;;;;;0.00;0.00;;;7.90;95.00;;;;;;5053009;28;20045;-71
2024/01/02 07:12:24;;;;;;;0.00;0.00;;;8.00;95.10;;;;;;5071081;28;20058;-71
2024/01/02 07:14:50;;;;;;;0.00;0.00;;;8.30;95.30;;;;;;5070673;28;20044;-72
2024/01/02 07:17:19;;;;;;;0.00;0.00;;;8.40;95.50;;;;;;5069805;28;20409;-71
2024/01/02 07:19:45;;;;;;;0.00;0.00;;;8.60;95.10;;;;;;5052633;28;20052;-71
2024/01/02 07:22:11;;;;;;;0.00;0.00;;;8.60;95.30;;;;;;5070403;28;20044;-72
2024/01/02 07:24:36;;;;;;;0.00;0.00;;;8.70;95.30;;;;;;5070755;28;20376;-72
2024/01/02 07:27:02;;;;;;;0.55;0.55;;;8.80;95.40;;;;;;5069439;28;20173;-71
2024/01/02 07:29:27;;;;;;;0.00;0.00;;;8.90;95.40;;;;;;5070066;28;20110;-71
2024/01/02 07:31:53;;;;;;;0.00;0.00;;;8.90;95.30;;;;;;5069236;28;20131;-71
2024/01/02 07:34:19;;;;;;;0.00;0.00;;;8.90;95.30;;;;;;5059095;28;20051;-71
2024/01/02 07:36:44;;;;;;;0.10;0.10;;;9.00;95.30;;;;;;5062306;28;20049;-72
2024/01/02 07:39:10;;;;;;;0.00;0.00;;;9.10;95.50;;;;;;5066487;28;20097;-72
2024/01/02 07:41:36;;;;;;;0.00;0.00;;;9.10;95.30;;;;;;5061630;28;20566;-71
2024/01/02 07:44:03;;;;;;;0.00;0.00;;;9.10;95.40;;;;;;5066300;28;20044;-70
2024/01/02 07:46:29;;;;;;;0.00;0.00;;;9.10;95.30;;;;;;5052621;28;20102;-73
2024/01/02 07:48:55;;;;;;;0.15;0.15;;;9.10;95.30;;;;;;5064062;28;20630;-71
2024/01/02 07:51:21;;;;;;;0.20;0.20;;;9.20;95.40;;;;;;5052353;28;20791;-71
2024/01/02 07:53:46;;;;;;;0.00;0.00;;;9.20;95.30;;;;;;5068056;28;20056;-72
2024/01/02 07:56:12;;;;;;;0.00;0.00;;;9.30;95.60;;;;;;5069918;28;20525;-71
2024/01/02 07:58:38;;;;;;;0.00;0.00;;;9.40;95.40;;;;;;5069304;28;20563;-71
2024/01/02 08:01:03;;;;;;;1.35;1.25;;;9.50;95.40;;;;;;5066378;28;20707;-72
2024/01/02 08:03:29;;;;;;;0.00;0.00;;;9.60;95.30;;;;;;5065568;28;20048;-71
2024/01/02 08:05:55;;;;;;;0.00;0.00;;;9.60;95.10;;;;;;5069355;28;20406;-72
2024/01/02 08:08:20;;;;;;;0.00;0.00;;;9.60;95.10;;;;;;5048896;28;20136;-72
2024/01/02 08:10:46;;;;;;;0.00;0.00;;;9.60;95.00;;;;;;5069707;28;20049;-72
2024/01/02 08:13:11;;;;;;;0.00;0.00;;;9.70;95.00;;;;;;5070574;28;20040;-72
2024/01/02 08:15:37;;;;;;;0.00;0.00;;;9.70;95.00;;;;;;5070077;28;20135;-72
2024/01/02 08:18:03;;;;;;;0.25;0.25;;;9.80;94.90;;;;;;5070006;28;20098;-72
2024/01/02 08:20:30;;;;;;;0.10;0.10;;;9.80;94.80;;;;;;5052272;28;20090;-72
2024/01/02 08:22:55;;;;;;;0.00;0.00;;;9.90;94.70;;;;;;5070533;28;20818;-72
2024/01/02 08:25:23;;;;;;;0.00;0.00;;;9.90;94.60;;;;;;5069725;28;20066;-72
2024/01/02 08:27:50;;;;;;;0.00;0.00;;;9.90;94.60;;;;;;5070166;28;20095;-72
2024/01/02 08:30:16;;;;;;;1.20;1.10;;;9.90;94.50;;;;;;5069858;28;20056;-71
2024/01/02 08:32:41;;;;;;;0.00;0.00;;;9.90;94.50;;;;;;5051750;28;20036;-72
2024/01/02 08:35:07;;;;;;;0.10;0.10;;;9.90;94.30;;;;;;5069656;28;20090;-72
2024/01/02 08:37:33;;;;;;;0.00;0.00;;;10.00;94.30;;;;;;5070001;28;20055;-69
2024/01/02 08:39:58;;;;;;;0.00;0.00;;;10.00;94.10;;;;;;5068965;28;20041;-69
2024/01/02 08:42:24;;;;;;;0.00;0.00;;;10.00;94.00;;;;;;5069338;28;20049;-69
2024/01/02 08:44:50;;;;;;;0.00;0.00;;;10.10;94.10;;;;;;5069143;28;20032;-69
2024/01/02 08:47:15;;;;;;;0.00;0.00;;;10.10;93.80;;;;;;5084427;28;20044;-69
2024/01/02 08:49:41;;;;;;;0.00;0.00;;;10.20;93.90;;;;;;5073045;28;20071;-70
2024/01/02 08:52:07;;;;;;;0.32;0.32;;;10.20;93.80;;;;;;5069652;28;20048;-70
2024/01/02 08:54:32;;;;;;;0.03;0.03;;;10.20;93.80;;;;;;5069403;28;20498;-70
2024/01/02 08:56:58;;;;;;;0.00;0.00;;;10.20;93.80;;;;;;5069422;28;20044;-71
2024/01/02 08:59:24;;;;;;;0.28;0.28;;;10.20;93.70;;;;;;5050739;28;20051;-70
2024/01/02 09:01:51;;;;;;;0.00;0.00;;;10.30;93.70;;;;;;5068520;28;20089;-70
2024/01/02 09:04:17;;;;;;;0.05;0.05;;;10.30;93.80;;;;;;5049155;28;20098;-70
2024/01/02 09:06:44;;;;;;;0.43;0.43;;;10.30;93.70;;;;;;5062873;28;20105;-69
2024/01/02 09:09:10;;;;;;;0.40;0.40;;;10.30;93.70;;;;;;5069003;28;20052;-70
2024/01/02 09:11:37;;;;;;;0.30;0.30;;;10.40;93.70;;;;;;5069394;28;20498;-70
2024/01/02 09:14:03;;;;;;;0.00;0.00;;;10.40;93.70;;;;;;5068603;28;20049;-70
2024/01/02 09:16:32;;;;;;;0.00;0.00;;;10.40;93.70;;;;;;5068746;28;20047;-70
2024/01/02 09:18:58;;;;;;;0.00;0.00;;;10.30;93.60;;;;;;5069010;28;20044;-70
2024/01/02 09:21:24;;;;;;;0.00;0.00;;;10.40;93.60;;;;;;5068565;28;20113;-70
2024/01/02 09:23:50;;;;;;;0.20;0.20;;;10.30;93.50;;;;;;5069031;28;20043;-70
2024/01/02 09:26:19;;;;;;;0.00;0.00;;;10.30;93.50;;;;;;5068870;28;20554;-70
2024/01/02 09:28:45;;;;;;;0.00;0.00;;;10.30;93.50;;;;;;5068455;28;20060;-70
2024/01/02 09:31:12;;;;;;;0.43;0.43;;;10.30;93.50;;;;;;5065452;28;20063;-71
2024/01/02 09:33:38;;;;;;;0.03;0.03;;;10.30;93.40;;;;;;5048722;28;20148;-71
2024/01/02 09:36:08;;;;;;;0.10;0.10;;;10.30;93.50;;;;;;5060443;28;20070;-71
2024/01/02 09:38:36;;;;;;;0.00;0.00;;;10.30;93.50;;;;;;5067654;28;20052;-70
2024/01/02 09:41:22;;;;;;;0.10;0.10;;;10.40;93.50;;;;;;5068414;28;20076;-70
2024/01/02 09:44:02;;;;;;;0.10;0.10;;;10.30;93.40;;;;;;5068395;28;20045;-70
2024/01/02 09:46:45;;;;;;;0.10;0.10;;;10.40;93.30;;;;;;5050854;28;20048;-70
2024/01/02 09:49:19;;;;;;;3.72;2.28;;;10.40;93.30;;;;;;5068547;28;20055;-70
2024/01/02 09:52:26;;;;;;;0.00;0.00;;;10.30;93.20;;;;;;5068250;28;20101;-70
2024/01/02 09:55:34;;;;;;;0.00;0.00;;;10.40;93.30;;;;;;5067828;28;20426;-70
2024/01/02 09:58:05;;;;;;;4.15;0.75;;;10.40;93.10;;;;;;5040586;28;20067;-71
2024/01/02 10:01:21;;;;;;;0.20;0.20;;;10.40;93.00;;;;;;5055707;28;20485;-71
2024/01/02 10:04:08;;;;;;;0.08;0.08;;;10.40;93.00;;;;;;4993590;28;20060;-70
2024/01/02 10:07:04;;;;;;;0.50;0.50;;;10.40;93.00;;;;;;5060669;28;20056;-70
2024/01/02 10:09:41;;;;;;;0.00;0.00;;;10.40;92.90;;;;;;5049436;28;20049;-70
2024/01/02 10:12:15;;;;;;;1.20;1.17;;;10.40;92.90;;;;;;5061777;28;20502;-71
2024/01/02 10:15:18;;;;;;;0.22;0.22;;;10.40;92.90;;;;;;5058147;28;20041;-70
2024/01/02 10:18:05;;;;;;;0.20;0.20;;;10.40;92.90;;;;;;5049616;28;20102;-70
2024/01/02 10:20:41;;;;;;;0.00;0.00;;;10.30;92.80;;;;;;5066408;28;20040;-71
2024/01/02 10:23:38;;;;;;;0.00;0.00;;;10.30;92.70;;;;;;5048871;28;20495;-70
2024/01/02 10:26:08;;;;;;;0.05;0.05;;;10.30;92.70;;;;;;5067224;28;20046;-70
2024/01/02 10:28:36;;;;;;;0.00;0.00;;;10.40;92.70;;;;;;5065478;28;20554;-71
2024/01/02 10:31:24;;;;;;;0.00;0.00;;;10.20;92.50;;;;;;5067245;28;20112;-70
2024/01/02 10:34:10;;;;;;;0.00;0.00;;;10.20;92.70;;;;;;5061939;28;20494;-71
2024/01/02 10:36:40;;;;;;;0.00;0.00;;;10.30;92.60;;;;;;5049515;28;20045;-71
2024/01/02 10:39:29;;;;;;;0.00;0.00;;;10.40;92.70;;;;;;5066967;28;20056;-70
2024/01/02 10:42:32;;;;;;;0.10;0.10;;;10.30;92.50;;;;;;5062835;28;20041;-70
2024/01/02 10:45:14;;;;;;;0.08;0.08;;;10.30;92.30;;;;;;5066606;28;20048;-72
2024/01/02 10:48:04;;;;;;;0.20;0.20;;;10.30;92.50;;;;;;5066176;28;20036;-72
2024/01/02 10:50:58;;;;;;;0.00;0.00;;;10.40;92.50;;;;;;5067362;28;20098;-72
2024/01/02 10:53:34;;;;;;;0.28;0.28;;;10.40;92.60;;;;;;5066131;28;20063;-72
2024/01/02 10:56:26;;;;;;;0.00;0.00;;;10.30;92.30;;;;;;5066583;28;20060;-72
2024/01/02 10:59:20;;;;;;;0.00;0.00;;;10.40;92.30;;;;;;5066203;28;20147;-72
2024/01/02 11:01:48;;;;;;;0.10;0.10;;;10.40;92.40;;;;;;5065568;28;20135;-71
2024/01/02 11:04:36;;;;;;;0.00;0.00;;;10.40;92.30;;;;;;5058448;28;20064;-71
2024/01/02 11:07:06;;;;;;;2.58;2.38;;;10.40;92.40;;;;;;5046577;28;20415;-70
2024/01/02 11:09:41;;;;;;;0.00;0.00;;;10.40;92.20;;;;;;5047424;28;20080;-71
2024/01/02 11:12:08;;;;;;;0.10;0.10;;;10.50;92.30;;;;;;5065788;28;20044;-70
2024/01/02 11:14:38;;;;;;;0.10;0.10;;;10.50;92.10;;;;;;5066597;28;20036;-71
2024/01/02 11:17:04;;;;;;;0.00;0.00;;;10.50;92.30;;;;;;5065522;28;20036;-70
2024/01/02 11:19:43;;;;;;;0.35;0.35;;;10.50;92.30;;;;;;5066754;28;20040;-70
2024/01/02 11:22:17;;;;;;;0.00;0.00;;;10.50;92.30;;;;;;5067090;28;20041;-70
2024/01/02 11:24:49;;;;;;;0.95;0.95;;;10.60;92.40;;;;;;5066543;28;20095;-70
2024/01/02 11:27:19;;;;;;;0.22;0.22;;;10.60;92.30;;;;;;5067417;28;20032;-70
2024/01/02 11:29:48;;;;;;;0.22;0.22;;;10.60;92.40;;;;;;5067407;28;20044;-70
2024/01/02 11:32:16;;;;;;;0.00;0.00;;;10.60;92.50;;;;;;5066822;28;20123;-70
2024/01/02 11:35:05;;;;;;;0.00;0.00;;;10.60;92.40;;;;;;5067385;28;20083;-70
2024/01/02 11:37:37;;;;;;;0.13;0.13;;;10.60;92.50;;;;;;5067593;28;20042;-71
2024/01/02 11:40:16;;;;;;;0.10;0.10;;;10.60;92.50;;;;;;5063979;28;20059;-70
2024/01/02 11:42:50;;;;;;;0.47;0.47;;;10.60;92.50;;;;;;5046683;28;20053;-70
2024/01/02 11:45:21;;;;;;;0.00;0.00;;;10.60;92.50;;;;;;5064244;28;20049;-71
2024/01/02 11:48:24;;;;;;;0.00;0.00;;;10.60;92.50;;;;;;5062477;28;20444;-70
2024/01/02 11:50:57;;;;;;;0.00;0.00;;;10.70;92.60;;;;;;5062850;28;20561;-70
2024/01/02 11:53:46;;;;;;;0.10;0.10;;;10.70;92.60;;;;;;5046327;28;20041;-70
2024/01/02 11:56:13;;;;;;;0.00;0.00;;;10.60;92.50;;;;;;5066768;28;20052;-70
2024/01/02 11:59:06;;;;;;;0.00;0.00;;;10.70;92.60;;;;;;5068640;28;20473;-70
2024/01/02 12:01:59;;;;;;;0.00;0.00;;;10.60;92.50;;;;;;5065578;28;20051;-70
2024/01/02 12:04:34;;;;;;;0.10;0.10;;;10.60;92.50;;;;;;5051498;28;20053;-70
2024/01/02 12:07:21;;;;;;;0.30;0.30;;;10.60;92.50;;;;;;5053983;28;20040;-70
2024/01/02 12:09:49;;;;;;;0.00;0.00;;;10.60;92.50;;;;;;5050350;28;20045;-69
2024/01/02 12:12:42;;;;;;;0.00;0.00;;;10.50;92.50;;;;;;5065184;28;20499;-70
2024/01/02 12:15:47;;;;;;;0.00;0.00;;;10.50;92.40;;;;;;5063756;28;20049;-70
2024/01/02 12:18:14;;;;;;;0.00;0.00;;;10.40;92.50;;;;;;5054634;28;20052;-70
2024/01/02 12:20:41;;;;;;;0.52;0.35;;;10.40;92.50;;;;;;5069617;28;20041;-70
2024/01/02 12:23:07;;;;;;;0.00;0.00;;;10.40;92.50;;;;;;5070079;28;20044;-71
2024/01/02 12:25:33;;;;;;;0.00;0.00;;;10.40;92.60;;;;;;5069581;28;20075;-71
2024/01/02 12:28:01;;;;;;;0.00;0.00;;;10.30;92.60;;;;;;5051482;28;20041;-71
2024/01/02 12:30:42;;;;;;;0.00;0.00;;;10.40;92.60;;;;;;5066567;28;20059;-71
2024/01/02 12:33:14;;;;;;;0.00;0.00;;;10.40;92.50;;;;;;5063894;28;20070;-71
2024/01/02 12:35:56;;;;;;;0.00;0.00;;;10.40;92.60;;;;;;5069888;28;20390;-70
2024/01/02 12:38:23;;;;;;;0.00;0.00;;;10.40;92.60;;;;;;5069959;28;20048;-70
2024/01/02 12:40:51;;;;;;;0.00;0.00;;;10.40;92.70;;;;;;5069436;28;20101;-71
2024/01/02 12:43:23;;;;;;;0.00;0.00;;;10.40;92.70;;;;;;5061590;28;20063;-70
2024/01/02 12:45:58;;;;;;;;;;;10.40;92.70;;;;;;5069659;28;20074;-71
2024/01/02 12:48:25;;;;;;;0.10;0.10;;;10.40;92.70;;;;;;5069080;28;19962;-70
2024/01/02 12:50:53;;;;;;;1.35;1.00;;;10.40;92.70;;;;;;5070275;28;20036;-71
2024/01/02 12:53:20;;;;;;;0.00;0.00;;;10.40;92.70;;;;;;5073635;28;20101;-70
2024/01/02 12:55:57;;;;;;;0.10;0.10;;;10.40;92.80;;;;;;5053116;28;20051;-70
2024/01/02 12:58:25;;;;;;;0.10;0.10;;;10.40;92.80;;;;;;5067925;28;20056;-70
2024/01/02 13:00:51;;;;;;;0.10;0.10;;;10.40;92.80;;;;;;5059530;28;20052;-71
2024/01/02 13:03:17;;;;;;;0.00;0.00;;;10.50;92.90;;;;;;5058690;28;20045;-70